Time;durP1;ratioP1;P1;durP2;ratioP2;P2;SDS_P1;SDS_P2;PMS_P1;PMS_P2;Temp;Humidity;BMP_temperature;BMP_pressure;BME280_temperature;BME280_humidity;BME280_pressure;Samples;Min_cycle;Max_cycle;Signal;HPM_P1;HPM_P2
2023/07/14 00:32:36;;;;;;;27.17;24.30;;;16.70;99.90;;;;;;5632641;25;20672;-86
2023/07/14 00:52:40;;;;;;;32.13;24.10;;;16.30;99.90;;;;;;5793455;24;20218;-84
2023/07/14 01:28:03;;;;;;;35.23;25.37;;;15.80;99.90;;;;;;5591793;25;20567;-84
2023/07/14 01:53:05;;;;;;;36.53;27.93;;;15.60;99.90;;;;;;5722605;24;20217;-88
2023/07/14 02:14:02;;;;;;;36.83;31.50;;;15.00;99.90;;;;;;5799974;24;20197;-87
2023/07/14 02:44:21;;;;;;;47.70;38.90;;;15.30;99.90;;;;;;5822934;24;20242;-84
2023/07/14 03:09:26;;;;;;;44.47;36.07;;;15.70;99.90;;;;;;5822844;24;20215;-85
2023/07/14 03:45:12;;;;;;;23.17;16.67;;;16.30;99.90;;;;;;5916434;24;20181;-84
2023/07/14 04:15:07;;;;;;;14.90;13.53;;;17.00;99.90;;;;;;5990752;23;20198;-85
2023/07/14 04:36:05;;;;;;;13.03;11.73;;;17.80;99.90;;;;;;5893899;24;20195;-85
2023/07/14 04:40:23;;;;;;;14.27;11.20;;;18.00;99.90;;;;;;5806764;24;20225;-86
2023/07/14 05:41:35;;;;;;;12.07;8.77;;;20.40;98.00;;;;;;5740863;24;20268;-86
2023/07/14 06:07:14;;;;;;;8.43;7.63;;;21.20;94.10;;;;;;5830606;24;20356;-82
2023/07/14 07:18:11;;;;;;;6.93;6.22;;;23.30;83.70;;;;;;5710157;24;20490;-80
2023/07/14 07:48:37;;;;;;;5.82;5.32;;;23.90;83.50;;;;;;5714636;24;20352;-83
2023/07/14 08:24:17;;;;;;;4.82;3.70;;;23.70;81.00;;;;;;5700288;24;20186;-85
2023/07/14 08:54:43;;;;;;;4.65;3.90;;;24.10;73.30;;;;;;5539129;24;20223;-81
2023/07/14 09:19:22;;;;;;;3.92;3.17;;;25.80;61.30;;;;;;5620187;24;20861;-83
2023/07/14 09:40:21;;;;;;;3.10;2.80;;;24.70;58.90;;;;;;5806508;24;20313;-85
2023/07/14 10:05:37;;;;;;;3.70;2.78;;;24.60;54.30;;;;;;5637304;24;20607;-83
2023/07/14 10:55:49;;;;;;;6.53;2.13;;;24.60;52.10;;;;;;5642612;24;20696;-82
2023/07/14 12:22:46;;;;;;;3.08;1.80;;;25.00;49.40;;;;;;5763435;24;20556;-84
2023/07/14 12:47:48;;;;;;;2.63;1.92;;;26.00;48.70;;;;;;5810355;24;20553;-83
2023/07/14 13:13:19;;;;;;;1.70;1.60;;;28.20;47.70;;;;;;5801168;24;20806;-87
2023/07/14 13:43:49;;;;;;;2.58;1.60;;;27.90;46.20;;;;;;5850120;24;20630;-84
2023/07/14 14:08:53;;;;;;;1.60;1.50;;;28.80;44.80;;;;;;5915240;23;20412;-87
2023/07/14 14:59:51;;;;;;;2.65;1.65;;;32.00;41.70;;;;;;5598466;24;20383;-83
2023/07/14 15:30:07;;;;;;;2.10;1.65;;;34.80;41.40;;;;;;5850348;24;20195;-84
2023/07/14 15:55:44;;;;;;;2.20;1.70;;;34.80;41.40;;;;;;5764492;24;20201;-87
2023/07/14 16:31:13;;;;;;;2.60;1.70;;;26.90;41.00;;;;;;5686046;24;20238;-87
2023/07/14 17:06:25;;;;;;;2.08;1.42;;;25.40;41.50;;;;;;5573444;25;20192;-83
2023/07/14 17:52:15;;;;;;;2.42;1.75;;;24.30;42.30;;;;;;5545557;25;20202;-84
2023/07/14 18:12:52;;;;;;;3.95;2.30;;;23.50;43.80;;;;;;5650635;24;20716;-82
2023/07/14 18:17:06;;;;;;;2.30;2.08;;;23.40;44.70;;;;;;5564206;25;20724;-83
2023/07/14 19:33:15;;;;;;;9.00;7.40;;;19.30;87.60;;;;;;5592627;24;20681;-85
2023/07/14 19:54:01;;;;;;;10.20;7.53;;;18.50;92.90;;;;;;5659296;24;20224;-84
2023/07/14 20:59:56;;;;;;;33.53;23.00;;;16.90;99.90;;;;;;5587797;25;20206;-82
2023/07/14 22:25:36;;;;;;;24.33;17.30;;;15.60;99.90;;;;;;5882472;23;20889;-82
2023/07/14 22:46:15;;;;;;;22.67;16.30;;;15.40;99.90;;;;;;5653122;24;20242;-85
2023/07/14 23:06:44;;;;;;;17.80;14.17;;;15.50;99.90;;;;;;5619021;25;20183;-83
